sensor_id;sensor_type;location;lat;lon;timestamp;P1;durP1;ratioP1;P2;durP2;ratioP2
13291;SDS011;6714;53.056;8.690;2023-03-14T00:02:15;4.37;;;2.47;;
13291;SDS011;6714;53.056;8.690;2023-03-14T00:04:57;5.43;;;2.83;;
13291;SDS011;6714;53.056;8.690;2023-03-14T00:07:39;6.67;;;2.87;;
13291;SDS011;6714;53.056;8.690;2023-03-14T00:10:23;3.63;;;2.53;;
13291;SDS011;6714;53.056;8.690;2023-03-14T00:13:05;4.00;;;2.60;;
13291;SDS011;6714;53.056;8.690;2023-03-14T00:15:47;5.23;;;2.57;;
13291;SDS011;6714;53.056;8.690;2023-03-14T00:18:29;3.87;;;2.47;;
13291;SDS011;6714;53.056;8.690;2023-03-14T00:21:11;3.13;;;2.37;;
13291;SDS011;6714;53.056;8.690;2023-03-14T00:23:54;5.90;;;2.60;;
13291;SDS011;6714;53.056;8.690;2023-03-14T00:26:37;4.37;;;2.50;;
13291;SDS011;6714;53.056;8.690;2023-03-14T00:29:19;4.93;;;2.73;;
13291;SDS011;6714;53.056;8.690;2023-03-14T00:32:02;5.00;;;2.30;;
13291;SDS011;6714;53.056;8.690;2023-03-14T00:34:44;8.27;;;2.93;;
13291;SDS011;6714;53.056;8.690;2023-03-14T00:37:26;5.57;;;2.53;;
13291;SDS011;6714;53.056;8.690;2023-03-14T00:40:09;4.23;;;2.33;;
13291;SDS011;6714;53.056;8.690;2023-03-14T00:42:52;5.77;;;2.67;;
13291;SDS011;6714;53.056;8.690;2023-03-14T00:45:35;6.50;;;2.70;;
13291;SDS011;6714;53.056;8.690;2023-03-14T00:48:17;4.33;;;2.13;;
13291;SDS011;6714;53.056;8.690;2023-03-14T00:50:59;3.47;;;2.10;;
13291;SDS011;6714;53.056;8.690;2023-03-14T00:53:41;4.03;;;2.40;;
13291;SDS011;6714;53.056;8.690;2023-03-14T00:56:24;4.57;;;2.80;;
13291;SDS011;6714;53.056;8.690;2023-03-14T00:59:07;3.73;;;2.47;;
13291;SDS011;6714;53.056;8.690;2023-03-14T01:01:49;2.67;;;2.03;;
13291;SDS011;6714;53.056;8.690;2023-03-14T01:04:31;4.63;;;2.77;;
13291;SDS011;6714;53.056;8.690;2023-03-14T01:07:14;3.70;;;2.60;;
13291;SDS011;6714;53.056;8.690;2023-03-14T01:09:57;5.27;;;3.33;;
13291;SDS011;6714;53.056;8.690;2023-03-14T01:12:39;3.97;;;2.77;;
13291;SDS011;6714;53.056;8.690;2023-03-14T01:15:22;3.17;;;2.37;;
13291;SDS011;6714;53.056;8.690;2023-03-14T01:18:04;9.43;;;4.17;;
13291;SDS011;6714;53.056;8.690;2023-03-14T01:20:47;5.77;;;3.40;;
13291;SDS011;6714;53.056;8.690;2023-03-14T01:23:29;4.37;;;3.70;;
13291;SDS011;6714;53.056;8.690;2023-03-14T01:26:11;3.77;;;3.30;;
13291;SDS011;6714;53.056;8.690;2023-03-14T01:28:54;4.47;;;2.70;;
13291;SDS011;6714;53.056;8.690;2023-03-14T01:31:38;3.63;;;3.23;;
13291;SDS011;6714;53.056;8.690;2023-03-14T01:34:20;4.13;;;2.90;;
13291;SDS011;6714;53.056;8.690;2023-03-14T01:37:02;5.37;;;3.10;;
13291;SDS011;6714;53.056;8.690;2023-03-14T01:39:46;7.63;;;5.00;;
13291;SDS011;6714;53.056;8.690;2023-03-14T01:42:28;5.93;;;3.40;;
13291;SDS011;6714;53.056;8.690;2023-03-14T01:48:08;5.50;;;4.20;;
13291;SDS011;6714;53.056;8.690;2023-03-14T01:50:51;5.43;;;3.30;;
13291;SDS011;6714;53.056;8.690;2023-03-14T01:53:33;3.40;;;2.60;;
13291;SDS011;6714;53.056;8.690;2023-03-14T01:56:15;2.93;;;2.57;;
13291;SDS011;6714;53.056;8.690;2023-03-14T01:58:59;5.07;;;3.50;;
13291;SDS011;6714;53.056;8.690;2023-03-14T02:01:43;3.93;;;2.73;;
13291;SDS011;6714;53.056;8.690;2023-03-14T02:04:28;3.43;;;2.77;;
13291;SDS011;6714;53.056;8.690;2023-03-14T02:07:12;4.00;;;2.70;;
13291;SDS011;6714;53.056;8.690;2023-03-14T02:09:56;4.80;;;2.73;;
13291;SDS011;6714;53.056;8.690;2023-03-14T02:12:39;7.17;;;4.10;;
13291;SDS011;6714;53.056;8.690;2023-03-14T02:15:21;4.23;;;2.90;;
13291;SDS011;6714;53.056;8.690;2023-03-14T02:18:04;3.20;;;2.53;;
13291;SDS011;6714;53.056;8.690;2023-03-14T02:20:49;4.47;;;2.87;;
13291;SDS011;6714;53.056;8.690;2023-03-14T02:23:36;6.07;;;3.93;;
13291;SDS011;6714;53.056;8.690;2023-03-14T02:26:20;6.47;;;3.10;;
13291;SDS011;6714;53.056;8.690;2023-03-14T02:29:06;6.43;;;3.70;;
13291;SDS011;6714;53.056;8.690;2023-03-14T02:34:35;4.40;;;3.20;;
13291;SDS011;6714;53.056;8.690;2023-03-14T02:37:18;4.53;;;3.30;;
13291;SDS011;6714;53.056;8.690;2023-03-14T02:40:01;6.73;;;3.90;;
13291;SDS011;6714;53.056;8.690;2023-03-14T02:42:44;4.80;;;3.10;;
13291;SDS011;6714;53.056;8.690;2023-03-14T02:45:35;6.93;;;3.83;;
13291;SDS011;6714;53.056;8.690;2023-03-14T02:48:19;4.03;;;3.30;;
13291;SDS011;6714;53.056;8.690;2023-03-14T02:51:02;6.13;;;3.57;;
13291;SDS011;6714;53.056;8.690;2023-03-14T02:53:44;5.20;;;3.77;;
13291;SDS011;6714;53.056;8.690;2023-03-14T02:56:26;6.40;;;3.00;;
13291;SDS011;6714;53.056;8.690;2023-03-14T02:59:09;3.33;;;3.00;;
13291;SDS011;6714;53.056;8.690;2023-03-14T03:01:52;5.17;;;3.50;;
13291;SDS011;6714;53.056;8.690;2023-03-14T03:04:34;5.67;;;3.53;;
13291;SDS011;6714;53.056;8.690;2023-03-14T03:07:17;5.63;;;3.50;;
13291;SDS011;6714;53.056;8.690;2023-03-14T03:10:00;5.23;;;3.00;;
13291;SDS011;6714;53.056;8.690;2023-03-14T03:12:42;3.43;;;2.90;;
13291;SDS011;6714;53.056;8.690;2023-03-14T03:15:25;5.87;;;3.10;;
13291;SDS011;6714;53.056;8.690;2023-03-14T03:18:11;5.30;;;3.00;;
13291;SDS011;6714;53.056;8.690;2023-03-14T03:20:53;3.80;;;2.93;;
13291;SDS011;6714;53.056;8.690;2023-03-14T03:23:35;7.07;;;3.60;;
13291;SDS011;6714;53.056;8.690;2023-03-14T03:26:17;5.60;;;2.90;;
13291;SDS011;6714;53.056;8.690;2023-03-14T03:29:00;5.43;;;3.20;;
13291;SDS011;6714;53.056;8.690;2023-03-14T03:31:42;3.37;;;2.83;;
13291;SDS011;6714;53.056;8.690;2023-03-14T03:34:27;7.17;;;3.33;;
13291;SDS011;6714;53.056;8.690;2023-03-14T03:37:09;6.30;;;2.93;;
13291;SDS011;6714;53.056;8.690;2023-03-14T03:39:51;4.03;;;2.60;;
13291;SDS011;6714;53.056;8.690;2023-03-14T03:42:33;4.23;;;2.77;;
13291;SDS011;6714;53.056;8.690;2023-03-14T03:45:16;5.53;;;3.00;;
13291;SDS011;6714;53.056;8.690;2023-03-14T03:47:59;6.00;;;3.70;;
13291;SDS011;6714;53.056;8.690;2023-03-14T03:50:45;7.53;;;3.30;;
13291;SDS011;6714;53.056;8.690;2023-03-14T03:53:27;7.07;;;3.70;;
13291;SDS011;6714;53.056;8.690;2023-03-14T03:56:10;5.10;;;3.00;;
13291;SDS011;6714;53.056;8.690;2023-03-14T03:58:53;7.07;;;3.73;;
13291;SDS011;6714;53.056;8.690;2023-03-14T04:01:35;3.40;;;3.10;;
13291;SDS011;6714;53.056;8.690;2023-03-14T04:04:17;5.87;;;3.50;;
13291;SDS011;6714;53.056;8.690;2023-03-14T04:07:01;4.43;;;3.00;;
13291;SDS011;6714;53.056;8.690;2023-03-14T04:09:43;6.17;;;2.87;;
13291;SDS011;6714;53.056;8.690;2023-03-14T04:12:26;7.20;;;3.17;;
13291;SDS011;6714;53.056;8.690;2023-03-14T04:15:08;3.27;;;2.47;;
13291;SDS011;6714;53.056;8.690;2023-03-14T04:17:51;3.63;;;2.60;;
13291;SDS011;6714;53.056;8.690;2023-03-14T04:20:34;5.47;;;3.03;;
13291;SDS011;6714;53.056;8.690;2023-03-14T04:23:17;6.00;;;3.07;;
13291;SDS011;6714;53.056;8.690;2023-03-14T04:25:59;5.83;;;2.77;;
13291;SDS011;6714;53.056;8.690;2023-03-14T04:28:41;3.90;;;2.50;;
13291;SDS011;6714;53.056;8.690;2023-03-14T04:31:24;4.30;;;2.63;;
13291;SDS011;6714;53.056;8.690;2023-03-14T04:34:06;4.47;;;2.37;;
13291;SDS011;6714;53.056;8.690;2023-03-14T04:36:48;3.60;;;2.50;;
13291;SDS011;6714;53.056;8.690;2023-03-14T04:39:32;4.87;;;2.73;;
13291;SDS011;6714;53.056;8.690;2023-03-14T04:42:14;4.57;;;2.77;;
13291;SDS011;6714;53.056;8.690;2023-03-14T04:44:57;3.97;;;2.77;;
13291;SDS011;6714;53.056;8.690;2023-03-14T04:47:40;3.67;;;2.60;;
13291;SDS011;6714;53.056;8.690;2023-03-14T04:50:22;3.67;;;2.87;;
13291;SDS011;6714;53.056;8.690;2023-03-14T04:53:04;3.20;;;2.10;;
13291;SDS011;6714;53.056;8.690;2023-03-14T04:55:49;2.80;;;2.37;;
13291;SDS011;6714;53.056;8.690;2023-03-14T04:58:31;4.23;;;2.50;;
13291;SDS011;6714;53.056;8.690;2023-03-14T05:01:14;2.97;;;2.43;;
13291;SDS011;6714;53.056;8.690;2023-03-14T05:03:57;4.03;;;2.30;;
13291;SDS011;6714;53.056;8.690;2023-03-14T05:06:40;6.20;;;2.50;;
13291;SDS011;6714;53.056;8.690;2023-03-14T05:09:23;4.03;;;2.20;;
13291;SDS011;6714;53.056;8.690;2023-03-14T05:12:06;2.20;;;2.00;;
13291;SDS011;6714;53.056;8.690;2023-03-14T05:14:48;4.47;;;2.40;;
13291;SDS011;6714;53.056;8.690;2023-03-14T05:17:31;3.70;;;2.30;;
13291;SDS011;6714;53.056;8.690;2023-03-14T05:20:14;3.53;;;2.07;;
13291;SDS011;6714;53.056;8.690;2023-03-14T05:22:56;2.90;;;1.90;;
13291;SDS011;6714;53.056;8.690;2023-03-14T05:25:38;6.20;;;2.40;;
13291;SDS011;6714;53.056;8.690;2023-03-14T05:28:22;3.67;;;1.90;;
13291;SDS011;6714;53.056;8.690;2023-03-14T05:31:06;5.90;;;2.10;;
13291;SDS011;6714;53.056;8.690;2023-03-14T05:33:48;4.17;;;1.73;;
13291;SDS011;6714;53.056;8.690;2023-03-14T05:36:30;6.13;;;2.00;;
13291;SDS011;6714;53.056;8.690;2023-03-14T05:39:13;3.57;;;2.00;;
13291;SDS011;6714;53.056;8.690;2023-03-14T05:41:55;4.43;;;1.97;;
13291;SDS011;6714;53.056;8.690;2023-03-14T05:44:38;2.30;;;1.73;;
13291;SDS011;6714;53.056;8.690;2023-03-14T05:47:21;1.90;;;1.80;;
13291;SDS011;6714;53.056;8.690;2023-03-14T05:50:03;4.00;;;2.00;;
13291;SDS011;6714;53.056;8.690;2023-03-14T05:52:45;2.73;;;1.90;;
13291;SDS011;6714;53.056;8.690;2023-03-14T05:55:28;3.17;;;1.67;;
13291;SDS011;6714;53.056;8.690;2023-03-14T05:58:11;2.00;;;1.50;;
13291;SDS011;6714;53.056;8.690;2023-03-14T06:00:54;4.27;;;2.03;;
13291;SDS011;6714;53.056;8.690;2023-03-14T06:03:36;2.90;;;1.70;;
13291;SDS011;6714;53.056;8.690;2023-03-14T06:06:19;2.33;;;1.60;;
13291;SDS011;6714;53.056;8.690;2023-03-14T06:09:01;2.50;;;1.73;;
13291;SDS011;6714;53.056;8.690;2023-03-14T06:11:43;2.47;;;1.80;;
13291;SDS011;6714;53.056;8.690;2023-03-14T06:14:26;3.03;;;1.70;;
13291;SDS011;6714;53.056;8.690;2023-03-14T06:17:10;3.07;;;1.70;;
13291;SDS011;6714;53.056;8.690;2023-03-14T06:19:52;2.93;;;1.80;;
13291;SDS011;6714;53.056;8.690;2023-03-14T06:22:34;3.13;;;1.83;;
13291;SDS011;6714;53.056;8.690;2023-03-14T06:25:18;2.43;;;1.70;;
13291;SDS011;6714;53.056;8.690;2023-03-14T06:28:00;2.47;;;1.67;;
13291;SDS011;6714;53.056;8.690;2023-03-14T06:30:43;2.67;;;1.43;;
13291;SDS011;6714;53.056;8.690;2023-03-14T06:33:26;3.73;;;1.80;;
13291;SDS011;6714;53.056;8.690;2023-03-14T06:36:09;2.70;;;1.70;;
13291;SDS011;6714;53.056;8.690;2023-03-14T06:38:51;2.80;;;1.60;;
13291;SDS011;6714;53.056;8.690;2023-03-14T06:41:33;2.17;;;1.40;;
13291;SDS011;6714;53.056;8.690;2023-03-14T06:44:15;2.97;;;1.47;;
13291;SDS011;6714;53.056;8.690;2023-03-14T06:46:57;1.90;;;1.47;;
13291;SDS011;6714;53.056;8.690;2023-03-14T06:49:41;1.53;;;1.30;;
13291;SDS011;6714;53.056;8.690;2023-03-14T06:52:24;3.20;;;1.70;;
13291;SDS011;6714;53.056;8.690;2023-03-14T06:55:06;2.57;;;1.50;;
13291;SDS011;6714;53.056;8.690;2023-03-14T06:57:49;3.13;;;1.70;;
13291;SDS011;6714;53.056;8.690;2023-03-14T07:00:31;2.70;;;1.77;;
13291;SDS011;6714;53.056;8.690;2023-03-14T07:03:14;4.20;;;1.90;;
13291;SDS011;6714;53.056;8.690;2023-03-14T07:05:57;2.30;;;1.77;;
13291;SDS011;6714;53.056;8.690;2023-03-14T07:08:40;3.27;;;1.70;;
13291;SDS011;6714;53.056;8.690;2023-03-14T07:11:22;5.33;;;1.83;;
13291;SDS011;6714;53.056;8.690;2023-03-14T07:14:04;4.93;;;1.53;;
13291;SDS011;6714;53.056;8.690;2023-03-14T07:16:47;4.10;;;2.10;;
13291;SDS011;6714;53.056;8.690;2023-03-14T07:19:29;2.80;;;1.80;;
13291;SDS011;6714;53.056;8.690;2023-03-14T07:22:12;2.40;;;1.50;;
13291;SDS011;6714;53.056;8.690;2023-03-14T07:24:54;1.93;;;1.63;;
13291;SDS011;6714;53.056;8.690;2023-03-14T07:27:37;4.73;;;2.13;;
13291;SDS011;6714;53.056;8.690;2023-03-14T07:30:19;3.50;;;1.77;;
13291;SDS011;6714;53.056;8.690;2023-03-14T07:33:01;5.83;;;2.27;;
13291;SDS011;6714;53.056;8.690;2023-03-14T07:35:44;5.60;;;2.07;;
13291;SDS011;6714;53.056;8.690;2023-03-14T07:38:27;4.80;;;2.20;;
13291;SDS011;6714;53.056;8.690;2023-03-14T07:41:10;6.03;;;2.23;;
13291;SDS011;6714;53.056;8.690;2023-03-14T07:43:52;5.30;;;2.00;;
13291;SDS011;6714;53.056;8.690;2023-03-14T07:46:34;3.80;;;1.77;;
13291;SDS011;6714;53.056;8.690;2023-03-14T07:49:16;3.77;;;1.90;;
13291;SDS011;6714;53.056;8.690;2023-03-14T07:51:58;5.70;;;2.37;;
13291;SDS011;6714;53.056;8.690;2023-03-14T07:54:42;4.80;;;2.07;;
13291;SDS011;6714;53.056;8.690;2023-03-14T07:57:24;3.87;;;1.90;;
13291;SDS011;6714;53.056;8.690;2023-03-14T08:00:07;5.47;;;2.07;;
13291;SDS011;6714;53.056;8.690;2023-03-14T08:02:49;4.10;;;2.23;;
13291;SDS011;6714;53.056;8.690;2023-03-14T08:05:33;3.97;;;1.70;;
13291;SDS011;6714;53.056;8.690;2023-03-14T08:08:16;5.47;;;2.67;;
13291;SDS011;6714;53.056;8.690;2023-03-14T08:11:03;4.87;;;1.93;;
13291;SDS011;6714;53.056;8.690;2023-03-14T08:13:45;4.20;;;1.70;;
13291;SDS011;6714;53.056;8.690;2023-03-14T08:16:30;4.37;;;2.00;;
13291;SDS011;6714;53.056;8.690;2023-03-14T08:19:12;2.73;;;1.80;;
13291;SDS011;6714;53.056;8.690;2023-03-14T08:21:54;4.10;;;1.60;;
13291;SDS011;6714;53.056;8.690;2023-03-14T08:24:36;2.43;;;1.50;;
13291;SDS011;6714;53.056;8.690;2023-03-14T08:27:20;9.90;;;2.13;;
13291;SDS011;6714;53.056;8.690;2023-03-14T08:30:02;5.97;;;1.97;;
13291;SDS011;6714;53.056;8.690;2023-03-14T08:32:44;4.73;;;1.83;;
13291;SDS011;6714;53.056;8.690;2023-03-14T08:35:26;4.80;;;1.83;;
13291;SDS011;6714;53.056;8.690;2023-03-14T08:38:09;4.17;;;1.63;;
13291;SDS011;6714;53.056;8.690;2023-03-14T08:40:54;4.13;;;1.67;;
13291;SDS011;6714;53.056;8.690;2023-03-14T08:43:38;3.33;;;1.70;;
13291;SDS011;6714;53.056;8.690;2023-03-14T08:46:20;3.43;;;1.63;;
13291;SDS011;6714;53.056;8.690;2023-03-14T08:49:02;3.63;;;1.80;;
13291;SDS011;6714;53.056;8.690;2023-03-14T08:51:45;3.90;;;1.80;;
13291;SDS011;6714;53.056;8.690;2023-03-14T08:54:27;2.93;;;1.60;;
13291;SDS011;6714;53.056;8.690;2023-03-14T08:57:09;3.90;;;1.67;;
13291;SDS011;6714;53.056;8.690;2023-03-14T08:59:53;2.87;;;1.70;;
13291;SDS011;6714;53.056;8.690;2023-03-14T09:02:36;4.27;;;1.60;;
13291;SDS011;6714;53.056;8.690;2023-03-14T09:05:18;4.67;;;1.50;;
13291;SDS011;6714;53.056;8.690;2023-03-14T09:08:00;1.57;;;1.27;;
13291;SDS011;6714;53.056;8.690;2023-03-14T09:10:42;4.00;;;1.70;;
13291;SDS011;6714;53.056;8.690;2023-03-14T09:13:25;2.03;;;1.30;;
13291;SDS011;6714;53.056;8.690;2023-03-14T09:16:09;3.80;;;1.73;;
13291;SDS011;6714;53.056;8.690;2023-03-14T09:18:51;2.50;;;0.97;;
13291;SDS011;6714;53.056;8.690;2023-03-14T09:21:34;2.13;;;1.03;;
13291;SDS011;6714;53.056;8.690;2023-03-14T09:24:30;3.70;;;1.00;;
13291;SDS011;6714;53.056;8.690;2023-03-14T09:27:12;3.10;;;1.13;;
13291;SDS011;6714;53.056;8.690;2023-03-14T09:29:56;3.00;;;1.00;;
13291;SDS011;6714;53.056;8.690;2023-03-14T09:32:39;2.40;;;0.90;;
13291;SDS011;6714;53.056;8.690;2023-03-14T09:35:22;4.43;;;1.00;;
13291;SDS011;6714;53.056;8.690;2023-03-14T09:38:04;2.87;;;1.00;;
13291;SDS011;6714;53.056;8.690;2023-03-14T09:40:46;1.93;;;0.70;;
13291;SDS011;6714;53.056;8.690;2023-03-14T09:43:29;1.20;;;0.50;;
13291;SDS011;6714;53.056;8.690;2023-03-14T09:46:12;2.70;;;1.00;;
13291;SDS011;6714;53.056;8.690;2023-03-14T09:54:26;3.17;;;0.80;;
13291;SDS011;6714;53.056;8.690;2023-03-14T09:57:12;5.27;;;0.73;;
13291;SDS011;6714;53.056;8.690;2023-03-14T09:59:56;0.60;;;0.50;;
13291;SDS011;6714;53.056;8.690;2023-03-14T10:02:39;1.40;;;0.50;;
13291;SDS011;6714;53.056;8.690;2023-03-14T10:05:22;0.30;;;0.30;;
13291;SDS011;6714;53.056;8.690;2023-03-14T10:08:05;0.23;;;0.23;;
13291;SDS011;6714;53.056;8.690;2023-03-14T10:10:50;0.50;;;0.40;;
13291;SDS011;6714;53.056;8.690;2023-03-14T10:13:33;0.80;;;0.40;;
13291;SDS011;6714;53.056;8.690;2023-03-14T10:16:15;0.50;;;0.33;;
13291;SDS011;6714;53.056;8.690;2023-03-14T10:19:01;0.20;;;0.10;;
13291;SDS011;6714;53.056;8.690;2023-03-14T10:21:48;1.53;;;0.27;;
13291;SDS011;6714;53.056;8.690;2023-03-14T10:24:32;0.67;;;0.33;;
13291;SDS011;6714;53.056;8.690;2023-03-14T10:27:19;0.77;;;0.23;;
13291;SDS011;6714;53.056;8.690;2023-03-14T10:30:02;0.20;;;0.20;;
13291;SDS011;6714;53.056;8.690;2023-03-14T10:32:45;0.43;;;0.40;;
13291;SDS011;6714;53.056;8.690;2023-03-14T10:35:27;0.67;;;0.20;;
13291;SDS011;6714;53.056;8.690;2023-03-14T10:38:16;0.30;;;0.30;;
13291;SDS011;6714;53.056;8.690;2023-03-14T10:40:58;1.03;;;0.50;;
13291;SDS011;6714;53.056;8.690;2023-03-14T10:43:42;0.30;;;0.30;;
13291;SDS011;6714;53.056;8.690;2023-03-14T10:46:25;0.47;;;0.30;;
13291;SDS011;6714;53.056;8.690;2023-03-14T10:49:16;1.37;;;0.40;;
13291;SDS011;6714;53.056;8.690;2023-03-14T10:52:13;0.70;;;0.37;;
13291;SDS011;6714;53.056;8.690;2023-03-14T10:54:56;0.43;;;0.40;;
13291;SDS011;6714;53.056;8.690;2023-03-14T10:57:39;0.63;;;0.50;;
13291;SDS011;6714;53.056;8.690;2023-03-14T11:00:22;1.43;;;0.50;;
13291;SDS011;6714;53.056;8.690;2023-03-14T11:03:07;1.47;;;0.50;;
13291;SDS011;6714;53.056;8.690;2023-03-14T11:05:52;1.53;;;0.90;;
13291;SDS011;6714;53.056;8.690;2023-03-14T11:08:37;1.40;;;0.70;;
13291;SDS011;6714;53.056;8.690;2023-03-14T11:11:25;1.43;;;0.90;;
13291;SDS011;6714;53.056;8.690;2023-03-14T11:14:09;1.30;;;0.80;;
13291;SDS011;6714;53.056;8.690;2023-03-14T11:16:56;1.13;;;0.80;;
13291;SDS011;6714;53.056;8.690;2023-03-14T11:19:49;2.40;;;0.70;;
13291;SDS011;6714;53.056;8.690;2023-03-14T11:22:34;3.10;;;0.80;;
13291;SDS011;6714;53.056;8.690;2023-03-14T11:25:21;1.60;;;0.70;;
13291;SDS011;6714;53.056;8.690;2023-03-14T11:28:09;1.10;;;0.70;;
13291;SDS011;6714;53.056;8.690;2023-03-14T11:30:52;1.57;;;0.73;;
13291;SDS011;6714;53.056;8.690;2023-03-14T11:33:36;3.30;;;0.83;;
13291;SDS011;6714;53.056;8.690;2023-03-14T11:36:20;1.43;;;0.80;;
13291;SDS011;6714;53.056;8.690;2023-03-14T11:39:03;3.07;;;1.17;;
13291;SDS011;6714;53.056;8.690;2023-03-14T11:41:51;2.90;;;1.17;;
13291;SDS011;6714;53.056;8.690;2023-03-14T11:44:34;2.40;;;0.93;;
13291;SDS011;6714;53.056;8.690;2023-03-14T11:47:20;1.60;;;0.83;;
13291;SDS011;6714;53.056;8.690;2023-03-14T11:50:07;5.93;;;1.20;;
13291;SDS011;6714;53.056;8.690;2023-03-14T11:52:55;3.13;;;1.23;;
13291;SDS011;6714;53.056;8.690;2023-03-14T11:55:38;5.23;;;1.30;;
13291;SDS011;6714;53.056;8.690;2023-03-14T11:58:23;3.37;;;1.20;;
13291;SDS011;6714;53.056;8.690;2023-03-14T12:01:08;3.37;;;0.90;;
13291;SDS011;6714;53.056;8.690;2023-03-14T12:03:52;3.83;;;1.23;;
13291;SDS011;6714;53.056;8.690;2023-03-14T12:06:40;6.30;;;2.00;;
13291;SDS011;6714;53.056;8.690;2023-03-14T12:09:26;7.10;;;1.70;;
13291;SDS011;6714;53.056;8.690;2023-03-14T12:12:10;6.57;;;1.77;;
13291;SDS011;6714;53.056;8.690;2023-03-14T12:14:54;4.70;;;1.40;;
13291;SDS011;6714;53.056;8.690;2023-03-14T12:17:39;5.83;;;1.80;;
13291;SDS011;6714;53.056;8.690;2023-03-14T12:20:23;7.73;;;1.77;;
13291;SDS011;6714;53.056;8.690;2023-03-14T12:23:11;7.33;;;2.03;;
13291;SDS011;6714;53.056;8.690;2023-03-14T12:26:13;11.60;;;2.67;;
13291;SDS011;6714;53.056;8.690;2023-03-14T12:29:09;11.50;;;2.37;;
13291;SDS011;6714;53.056;8.690;2023-03-14T12:34:56;8.33;;;2.10;;
13291;SDS011;6714;53.056;8.690;2023-03-14T12:37:40;10.17;;;2.10;;
13291;SDS011;6714;53.056;8.690;2023-03-14T12:40:29;10.63;;;2.67;;
13291;SDS011;6714;53.056;8.690;2023-03-14T12:43:23;7.67;;;1.90;;
13291;SDS011;6714;53.056;8.690;2023-03-14T12:46:07;10.30;;;2.60;;
13291;SDS011;6714;53.056;8.690;2023-03-14T12:48:50;9.20;;;2.27;;
13291;SDS011;6714;53.056;8.690;2023-03-14T12:51:36;6.20;;;1.93;;
13291;SDS011;6714;53.056;8.690;2023-03-14T12:54:25;7.37;;;1.90;;
13291;SDS011;6714;53.056;8.690;2023-03-14T12:57:13;7.77;;;1.53;;
13291;SDS011;6714;53.056;8.690;2023-03-14T12:59:58;7.60;;;1.47;;
13291;SDS011;6714;53.056;8.690;2023-03-14T13:02:41;6.33;;;1.77;;
13291;SDS011;6714;53.056;8.690;2023-03-14T13:05:24;6.73;;;1.83;;
13291;SDS011;6714;53.056;8.690;2023-03-14T13:08:09;6.27;;;1.87;;
13291;SDS011;6714;53.056;8.690;2023-03-14T13:10:52;8.03;;;1.90;;
13291;SDS011;6714;53.056;8.690;2023-03-14T13:13:40;6.57;;;1.53;;
13291;SDS011;6714;53.056;8.690;2023-03-14T13:16:23;8.57;;;2.00;;
13291;SDS011;6714;53.056;8.690;2023-03-14T13:19:09;10.80;;;2.10;;
13291;SDS011;6714;53.056;8.690;2023-03-14T13:21:54;9.60;;;2.50;;
13291;SDS011;6714;53.056;8.690;2023-03-14T13:24:38;7.03;;;2.00;;
13291;SDS011;6714;53.056;8.690;2023-03-14T13:27:21;7.47;;;1.73;;
13291;SDS011;6714;53.056;8.690;2023-03-14T13:30:14;5.83;;;2.00;;
13291;SDS011;6714;53.056;8.690;2023-03-14T13:32:57;6.60;;;1.80;;
13291;SDS011;6714;53.056;8.690;2023-03-14T13:35:40;7.93;;;1.67;;
13291;SDS011;6714;53.056;8.690;2023-03-14T13:38:24;7.57;;;1.90;;
13291;SDS011;6714;53.056;8.690;2023-03-14T13:41:07;3.77;;;1.17;;
13291;SDS011;6714;53.056;8.690;2023-03-14T13:43:49;6.17;;;1.73;;
13291;SDS011;6714;53.056;8.690;2023-03-14T13:46:34;7.50;;;1.80;;
13291;SDS011;6714;53.056;8.690;2023-03-14T13:49:18;4.73;;;1.53;;
13291;SDS011;6714;53.056;8.690;2023-03-14T13:55:03;6.17;;;2.03;;
13291;SDS011;6714;53.056;8.690;2023-03-14T13:57:47;4.47;;;1.90;;
13291;SDS011;6714;53.056;8.690;2023-03-14T14:00:31;7.07;;;1.97;;
13291;SDS011;6714;53.056;8.690;2023-03-14T14:03:16;4.30;;;1.20;;
13291;SDS011;6714;53.056;8.690;2023-03-14T14:05:58;7.63;;;1.93;;
13291;SDS011;6714;53.056;8.690;2023-03-14T14:08:41;7.07;;;1.77;;
13291;SDS011;6714;53.056;8.690;2023-03-14T14:11:27;6.90;;;1.60;;
13291;SDS011;6714;53.056;8.690;2023-03-14T14:14:13;5.00;;;1.70;;
13291;SDS011;6714;53.056;8.690;2023-03-14T14:16:57;4.20;;;1.50;;
13291;SDS011;6714;53.056;8.690;2023-03-14T14:19:41;3.00;;;1.40;;
13291;SDS011;6714;53.056;8.690;2023-03-14T14:22:24;4.10;;;1.30;;
13291;SDS011;6714;53.056;8.690;2023-03-14T14:25:12;4.33;;;1.63;;
13291;SDS011;6714;53.056;8.690;2023-03-14T14:27:54;8.70;;;2.07;;
13291;SDS011;6714;53.056;8.690;2023-03-14T14:30:37;6.70;;;1.60;;
13291;SDS011;6714;53.056;8.690;2023-03-14T14:33:20;8.20;;;2.17;;
13291;SDS011;6714;53.056;8.690;2023-03-14T14:36:04;8.50;;;1.77;;
13291;SDS011;6714;53.056;8.690;2023-03-14T14:38:53;7.73;;;1.90;;
13291;SDS011;6714;53.056;8.690;2023-03-14T14:41:39;8.20;;;1.63;;
13291;SDS011;6714;53.056;8.690;2023-03-14T14:44:26;9.60;;;1.90;;
13291;SDS011;6714;53.056;8.690;2023-03-14T14:47:12;8.13;;;1.93;;
13291;SDS011;6714;53.056;8.690;2023-03-14T14:49:55;5.20;;;1.80;;
13291;SDS011;6714;53.056;8.690;2023-03-14T14:52:42;5.53;;;1.63;;
13291;SDS011;6714;53.056;8.690;2023-03-14T14:55:29;8.10;;;1.90;;
13291;SDS011;6714;53.056;8.690;2023-03-14T14:58:12;7.40;;;1.93;;
13291;SDS011;6714;53.056;8.690;2023-03-14T15:00:57;6.77;;;1.77;;
13291;SDS011;6714;53.056;8.690;2023-03-14T15:03:41;7.37;;;1.90;;
13291;SDS011;6714;53.056;8.690;2023-03-14T15:06:24;6.50;;;1.67;;
13291;SDS011;6714;53.056;8.690;2023-03-14T15:09:12;6.17;;;1.80;;
13291;SDS011;6714;53.056;8.690;2023-03-14T15:11:56;3.70;;;1.60;;
13291;SDS011;6714;53.056;8.690;2023-03-14T15:14:38;6.73;;;1.80;;
13291;SDS011;6714;53.056;8.690;2023-03-14T15:17:20;5.53;;;1.70;;
13291;SDS011;6714;53.056;8.690;2023-03-14T15:20:03;6.13;;;1.80;;
13291;SDS011;6714;53.056;8.690;2023-03-14T15:22:45;7.57;;;1.80;;
13291;SDS011;6714;53.056;8.690;2023-03-14T15:25:29;5.60;;;1.30;;
13291;SDS011;6714;53.056;8.690;2023-03-14T15:28:14;4.13;;;1.53;;
13291;SDS011;6714;53.056;8.690;2023-03-14T15:30:57;3.90;;;1.37;;
13291;SDS011;6714;53.056;8.690;2023-03-14T15:33:39;7.30;;;1.87;;
13291;SDS011;6714;53.056;8.690;2023-03-14T15:36:22;5.20;;;1.43;;
13291;SDS011;6714;53.056;8.690;2023-03-14T15:39:05;6.67;;;2.00;;
13291;SDS011;6714;53.056;8.690;2023-03-14T15:41:49;6.03;;;1.33;;
13291;SDS011;6714;53.056;8.690;2023-03-14T15:44:31;6.33;;;1.77;;
13291;SDS011;6714;53.056;8.690;2023-03-14T15:47:14;4.00;;;1.43;;
13291;SDS011;6714;53.056;8.690;2023-03-14T15:49:56;4.50;;;1.30;;
13291;SDS011;6714;53.056;8.690;2023-03-14T15:52:38;5.63;;;1.30;;
13291;SDS011;6714;53.056;8.690;2023-03-14T15:55:21;7.00;;;1.87;;
13291;SDS011;6714;53.056;8.690;2023-03-14T15:58:04;3.90;;;1.63;;
13291;SDS011;6714;53.056;8.690;2023-03-14T16:00:47;6.53;;;1.80;;
13291;SDS011;6714;53.056;8.690;2023-03-14T16:03:29;7.83;;;1.80;;
13291;SDS011;6714;53.056;8.690;2023-03-14T16:06:11;5.27;;;1.60;;
13291;SDS011;6714;53.056;8.690;2023-03-14T16:08:53;6.23;;;1.90;;
13291;SDS011;6714;53.056;8.690;2023-03-14T16:11:36;7.47;;;1.90;;
13291;SDS011;6714;53.056;8.690;2023-03-14T16:14:19;4.47;;;1.47;;
13291;SDS011;6714;53.056;8.690;2023-03-14T16:17:03;5.53;;;1.90;;
13291;SDS011;6714;53.056;8.690;2023-03-14T16:19:50;5.43;;;1.47;;
13291;SDS011;6714;53.056;8.690;2023-03-14T16:22:32;6.87;;;1.70;;
13291;SDS011;6714;53.056;8.690;2023-03-14T16:25:15;6.73;;;1.80;;
13291;SDS011;6714;53.056;8.690;2023-03-14T16:27:58;5.70;;;1.80;;
13291;SDS011;6714;53.056;8.690;2023-03-14T16:30:42;5.40;;;1.77;;
13291;SDS011;6714;53.056;8.690;2023-03-14T16:33:24;4.77;;;1.50;;
13291;SDS011;6714;53.056;8.690;2023-03-14T16:36:07;6.13;;;1.93;;
13291;SDS011;6714;53.056;8.690;2023-03-14T16:38:51;6.93;;;1.60;;
13291;SDS011;6714;53.056;8.690;2023-03-14T16:41:33;4.53;;;1.70;;
13291;SDS011;6714;53.056;8.690;2023-03-14T16:44:15;6.73;;;1.73;;
13291;SDS011;6714;53.056;8.690;2023-03-14T16:46:59;7.50;;;1.73;;
13291;SDS011;6714;53.056;8.690;2023-03-14T16:49:41;5.73;;;1.90;;
13291;SDS011;6714;53.056;8.690;2023-03-14T16:52:23;7.27;;;1.40;;
13291;SDS011;6714;53.056;8.690;2023-03-14T16:55:06;6.10;;;1.60;;
13291;SDS011;6714;53.056;8.690;2023-03-14T16:57:48;7.23;;;1.87;;